createdAt,value
2023-01-07T00:01:41.731Z,8.10
2023-01-07T00:04:12.779Z,8.10
2023-01-07T00:06:41.834Z,8.10
2023-01-07T00:09:16.350Z,8.10
2023-01-07T00:11:44.851Z,8.20
2023-01-07T00:14:14.315Z,8.30
2023-01-07T00:16:42.480Z,8.30
2023-01-07T00:19:13.825Z,8.40
2023-01-07T00:21:41.792Z,8.10
2023-01-07T00:24:10.921Z,8.20
2023-01-07T00:26:39.344Z,8.30
2023-01-07T00:29:07.637Z,8.20
2023-01-07T00:31:37.634Z,8.20
2023-01-07T00:34:05.324Z,8.40
2023-01-07T00:36:39.728Z,8.20
2023-01-07T00:39:12.812Z,8.40
2023-01-07T00:41:40.996Z,8.40
2023-01-07T00:44:08.790Z,8.20
2023-01-07T00:46:36.398Z,8.40
2023-01-07T00:49:03.911Z,8.20
2023-01-07T00:51:31.433Z,8.40
2023-01-07T00:53:58.963Z,8.30
2023-01-07T00:56:26.590Z,8.30
2023-01-07T00:58:53.994Z,8.30
2023-01-07T01:01:21.850Z,8.40
2023-01-07T01:03:49.390Z,8.40
2023-01-07T01:06:17.046Z,8.30
2023-01-07T01:08:46.026Z,8.40
2023-01-07T01:11:15.504Z,8.40
2023-01-07T01:13:44.426Z,8.20
2023-01-07T01:16:15.439Z,8.20
2023-01-07T01:18:43.840Z,8.30
2023-01-07T01:21:13.847Z,8.30
2023-01-07T01:23:42.659Z,8.30
2023-01-07T01:26:13.463Z,8.20
2023-01-07T01:28:41.793Z,8.50
2023-01-07T01:31:10.083Z,8.50
2023-01-07T01:33:53.035Z,8.50
2023-01-07T01:36:20.629Z,8.30
2023-01-07T01:38:48.127Z,8.40
2023-01-07T01:41:18.685Z,8.30
2023-01-07T01:43:48.391Z,8.30
2023-01-07T01:46:22.159Z,8.30
2023-01-07T01:48:56.808Z,8.50
2023-01-07T01:51:28.895Z,8.50
2023-01-07T01:53:56.765Z,8.40
2023-01-07T01:56:30.872Z,8.30
2023-01-07T01:59:04.560Z,8.50
2023-01-07T02:01:35.898Z,8.40
2023-01-07T02:04:16.889Z,8.30
2023-01-07T02:06:55.582Z,8.30
2023-01-07T02:09:24.602Z,8.40
2023-01-07T02:11:58.627Z,8.40
2023-01-07T02:14:59.028Z,8.50
2023-01-07T02:17:50.974Z,8.60
2023-01-07T02:20:35.856Z,8.50
2023-01-07T02:23:36.289Z,8.60
2023-01-07T02:26:25.000Z,8.40
2023-01-07T02:29:25.489Z,8.70
2023-01-07T02:32:11.143Z,8.70
2023-01-07T02:34:55.172Z,8.60
2023-01-07T02:37:52.620Z,8.50
2023-01-07T02:40:36.108Z,8.50
2023-01-07T02:43:12.317Z,8.80
2023-01-07T02:45:56.800Z,8.80
2023-01-07T02:48:25.874Z,8.80
2023-01-07T02:50:53.380Z,8.80
2023-01-07T02:53:21.923Z,8.90
2023-01-07T02:56:16.319Z,8.70
2023-01-07T02:59:31.910Z,8.80
2023-01-07T03:02:02.790Z,8.80
2023-01-07T03:04:40.336Z,8.70
2023-01-07T03:07:44.872Z,8.50
2023-01-07T03:10:47.688Z,8.60
2023-01-07T03:13:23.802Z,8.80
2023-01-07T03:16:08.832Z,8.90
2023-01-07T03:18:41.055Z,8.80
2023-01-07T03:21:14.911Z,8.90
2023-01-07T03:23:49.181Z,8.90
2023-01-07T03:26:22.371Z,8.90
2023-01-07T03:28:52.676Z,8.80
2023-01-07T03:31:22.378Z,8.70
2023-01-07T03:34:08.327Z,8.70
2023-01-07T03:36:45.716Z,8.70
2023-01-07T03:39:15.331Z,8.90
2023-01-07T03:42:01.776Z,8.70
2023-01-07T03:44:29.395Z,8.70
2023-01-07T03:46:57.516Z,8.80
2023-01-07T03:49:25.572Z,9.10
2023-01-07T03:51:54.713Z,8.80
2023-01-07T03:54:23.971Z,9.20
2023-01-07T03:56:51.755Z,9.10
2023-01-07T03:59:19.330Z,9.20
2023-01-07T04:01:48.354Z,8.80
2023-01-07T04:04:16.743Z,8.90
2023-01-07T04:06:44.533Z,8.90
2023-01-07T04:09:15.102Z,9.10
2023-01-07T04:11:43.749Z,8.90
2023-01-07T04:14:12.107Z,8.90
2023-01-07T04:16:39.752Z,8.90
2023-01-07T04:19:08.399Z,9.10
2023-01-07T04:21:36.062Z,9.10
2023-01-07T04:24:05.649Z,9.20
2023-01-07T04:26:33.948Z,9.10
2023-01-07T04:29:01.723Z,9.20
2023-01-07T04:31:29.544Z,8.90
2023-01-07T04:33:57.148Z,9.30
2023-01-07T04:36:25.509Z,8.90
2023-01-07T04:38:53.452Z,9.10
2023-01-07T04:41:21.461Z,9.20
2023-01-07T04:43:49.088Z,9.20
2023-01-07T04:46:16.676Z,8.80
2023-01-07T04:48:44.363Z,8.80
2023-01-07T04:51:11.966Z,8.90
2023-01-07T04:53:39.786Z,8.90
2023-01-07T04:56:08.452Z,9.20
2023-01-07T04:58:35.912Z,9.20
2023-01-07T05:01:04.417Z,9.20
2023-01-07T05:03:36.757Z,9.00
2023-01-07T05:06:05.927Z,9.20
2023-01-07T05:08:34.305Z,9.30
2023-01-07T05:11:03.972Z,9.20
2023-01-07T05:13:32.557Z,9.30
2023-01-07T05:16:01.902Z,9.00
2023-01-07T05:18:30.641Z,8.90
2023-01-07T05:20:59.115Z,9.30
2023-01-07T05:23:26.625Z,9.00
2023-01-07T05:25:54.287Z,9.00
2023-01-07T05:28:21.788Z,9.10
2023-01-07T05:30:49.481Z,9.00
2023-01-07T05:33:16.974Z,9.20
2023-01-07T05:35:48.623Z,9.40
2023-01-07T05:38:17.457Z,9.10
2023-01-07T05:40:49.865Z,9.10
2023-01-07T05:43:21.610Z,9.30
2023-01-07T05:45:49.461Z,9.50
2023-01-07T05:48:17.014Z,9.40
2023-01-07T05:50:44.733Z,9.50
2023-01-07T05:53:12.214Z,9.60
2023-01-07T05:55:40.101Z,9.30
2023-01-07T05:58:08.193Z,9.30
2023-01-07T06:00:36.843Z,9.50
2023-01-07T06:03:05.186Z,9.60
2023-01-07T06:05:33.080Z,9.70
2023-01-07T06:08:00.545Z,9.70
2023-01-07T06:10:28.092Z,9.40
2023-01-07T06:12:55.539Z,9.60
2023-01-07T06:15:23.141Z,9.60
2023-01-07T06:17:50.667Z,9.60
2023-01-07T06:20:18.322Z,9.50
2023-01-07T06:22:45.797Z,9.40
2023-01-07T06:25:13.847Z,9.60
2023-01-07T06:27:41.425Z,9.40
2023-01-07T06:30:11.189Z,9.70
2023-01-07T06:32:44.617Z,9.40
2023-01-07T06:35:12.739Z,9.70
2023-01-07T06:37:41.231Z,9.60
2023-01-07T06:40:09.496Z,9.40
2023-01-07T06:42:37.047Z,9.40
2023-01-07T06:45:05.093Z,9.70
2023-01-07T06:47:32.646Z,9.60
2023-01-07T06:50:00.414Z,9.40
2023-01-07T06:52:27.883Z,9.40
2023-01-07T06:54:55.540Z,9.40
2023-01-07T06:57:23.096Z,9.40
2023-01-07T06:59:50.686Z,9.70
2023-01-07T07:02:21.438Z,9.40
2023-01-07T07:04:49.385Z,9.70
2023-01-07T07:07:17.354Z,9.30
2023-01-07T07:09:45.424Z,9.30
2023-01-07T07:12:13.360Z,9.40
2023-01-07T07:14:40.909Z,9.60
2023-01-07T07:17:08.409Z,9.40
2023-01-07T07:19:35.968Z,9.60
2023-01-07T07:22:04.775Z,9.40
2023-01-07T07:24:32.385Z,9.30
2023-01-07T07:27:00.293Z,9.60
2023-01-07T07:29:27.807Z,9.40
2023-01-07T07:31:55.247Z,9.40
2023-01-07T07:34:22.819Z,9.70
2023-01-07T07:36:50.309Z,9.60
2023-01-07T07:39:17.863Z,9.60
2023-01-07T07:41:45.534Z,9.30
2023-01-07T07:44:15.734Z,9.60
2023-01-07T07:46:43.250Z,9.40
2023-01-07T07:49:13.607Z,9.60
2023-01-07T07:51:41.175Z,9.60
2023-01-07T07:54:08.726Z,9.60
2023-01-07T07:56:36.355Z,9.60
2023-01-07T07:59:05.227Z,9.60
2023-01-07T08:01:32.863Z,9.40
2023-01-07T08:04:01.116Z,9.60
2023-01-07T08:06:28.675Z,9.50
2023-01-07T08:08:56.241Z,9.20
2023-01-07T08:11:23.874Z,9.50
2023-01-07T08:13:51.388Z,9.10
2023-01-07T08:16:18.982Z,9.40
2023-01-07T08:18:46.573Z,9.10
2023-01-07T08:21:14.075Z,9.40
2023-01-07T08:23:41.545Z,9.10
2023-01-07T08:26:09.139Z,9.30
2023-01-07T08:28:37.942Z,9.40
2023-01-07T08:31:07.430Z,9.40
2023-01-07T08:33:37.795Z,9.30
2023-01-07T08:36:14.834Z,9.10
2023-01-07T08:38:55.631Z,9.20
2023-01-07T08:41:23.817Z,9.20
2023-01-07T08:43:53.133Z,9.00
2023-01-07T08:46:20.881Z,9.30
2023-01-07T08:48:48.523Z,9.00
2023-01-07T08:51:16.190Z,9.00
2023-01-07T08:53:43.747Z,9.00
2023-01-07T08:56:11.419Z,9.10
2023-01-07T08:58:39.277Z,9.30
2023-01-07T09:01:07.887Z,9.20
2023-01-07T09:03:35.692Z,9.00
2023-01-07T09:06:03.261Z,9.30
2023-01-07T09:08:31.045Z,9.10
2023-01-07T09:10:58.724Z,9.20
2023-01-07T09:13:26.163Z,9.00
2023-01-07T09:15:53.924Z,9.00
2023-01-07T09:18:21.784Z,8.90
2023-01-07T09:20:49.387Z,9.20
2023-01-07T09:23:16.940Z,8.90
2023-01-07T09:25:44.474Z,9.10
2023-01-07T09:28:12.044Z,9.20
2023-01-07T09:30:39.673Z,9.20
2023-01-07T09:33:07.291Z,8.90
2023-01-07T09:35:34.905Z,9.00
2023-01-07T09:38:02.411Z,8.80
2023-01-07T09:40:36.378Z,8.80
2023-01-07T09:43:21.548Z,8.80
2023-01-07T09:45:59.937Z,8.90
2023-01-07T09:48:42.172Z,8.80
2023-01-07T09:51:27.445Z,8.80
2023-01-07T09:54:01.788Z,8.90
2023-01-07T09:56:37.116Z,8.90
2023-01-07T09:59:06.558Z,8.80
2023-01-07T10:01:47.517Z,9.10
2023-01-07T10:04:39.837Z,8.70
2023-01-07T10:07:29.621Z,9.00
2023-01-07T10:10:26.375Z,9.00
2023-01-07T10:13:18.173Z,8.70
2023-01-07T10:15:51.687Z,8.60
2023-01-07T10:18:38.171Z,9.00
2023-01-07T10:21:08.427Z,8.70
2023-01-07T10:23:49.540Z,8.70
2023-01-07T10:26:43.041Z,8.60
2023-01-07T10:29:17.249Z,8.80
2023-01-07T10:31:46.421Z,8.90
2023-01-07T10:34:18.341Z,8.70
2023-01-07T10:37:06.153Z,8.70
2023-01-07T10:39:49.168Z,8.90
2023-01-07T10:42:54.139Z,8.70
2023-01-07T10:45:30.667Z,8.90
2023-01-07T10:48:16.095Z,8.70
2023-01-07T10:51:05.323Z,8.80
2023-01-07T10:53:50.824Z,8.80
2023-01-07T10:56:27.311Z,8.70
2023-01-07T10:58:55.027Z,8.90
2023-01-07T11:01:29.229Z,8.70
2023-01-07T11:03:59.721Z,8.90
2023-01-07T11:06:43.420Z,8.60
2023-01-07T11:09:27.396Z,8.80
2023-01-07T11:11:57.991Z,8.60
2023-01-07T11:14:34.297Z,8.70
2023-01-07T11:17:26.147Z,8.60
2023-01-07T11:19:53.670Z,8.80
2023-01-07T11:22:27.077Z,8.80
2023-01-07T11:24:55.983Z,8.60
2023-01-07T11:27:29.259Z,8.80
2023-01-07T11:30:07.609Z,8.70
2023-01-07T11:32:40.651Z,8.50
2023-01-07T11:35:34.958Z,8.50
2023-01-07T11:38:02.476Z,8.80
2023-01-07T11:40:32.938Z,8.70
2023-01-07T11:43:03.471Z,8.50
2023-01-07T11:46:19.186Z,8.80
2023-01-07T11:48:39.589Z,8.50
2023-01-07T11:51:10.862Z,8.50
2023-01-07T11:53:46.198Z,8.70
2023-01-07T11:56:22.763Z,8.70
2023-01-07T11:58:52.987Z,8.50
2023-01-07T12:01:23.253Z,8.70
2023-01-07T12:03:53.893Z,8.50
2023-01-07T12:06:35.078Z,8.60
2023-01-07T12:09:15.220Z,8.60
2023-01-07T12:11:45.307Z,8.40
2023-01-07T12:14:18.401Z,8.50
2023-01-07T12:16:47.054Z,8.50
2023-01-07T12:19:23.335Z,8.40
2023-01-07T12:22:18.788Z,8.60
2023-01-07T12:25:26.460Z,8.40
2023-01-07T12:28:14.564Z,8.30
2023-01-07T12:30:44.029Z,8.60
2023-01-07T12:33:24.495Z,8.50
2023-01-07T12:35:53.363Z,8.20
2023-01-07T12:38:48.595Z,8.50
2023-01-07T12:41:30.647Z,8.20
2023-01-07T12:44:01.226Z,8.40
2023-01-07T12:46:51.813Z,8.50
2023-01-07T12:49:36.870Z,8.50
2023-01-07T12:52:16.745Z,8.50
2023-01-07T12:55:21.076Z,8.50
2023-01-07T12:58:11.770Z,8.30
2023-01-07T13:01:13.829Z,8.50
2023-01-07T13:03:47.559Z,8.60
2023-01-07T13:06:24.790Z,8.50
2023-01-07T13:09:03.956Z,8.20
2023-01-07T13:12:00.651Z,8.40
2023-01-07T13:14:39.272Z,8.30
2023-01-07T13:17:28.582Z,8.40
2023-01-07T13:19:56.517Z,8.50
2023-01-07T13:22:24.013Z,8.40
2023-01-07T13:25:39.491Z,8.40
2023-01-07T13:28:28.307Z,8.30
2023-01-07T13:31:34.206Z,8.60
2023-01-07T13:34:24.522Z,8.60
2023-01-07T13:37:26.951Z,8.50
2023-01-07T13:40:20.225Z,8.80
2023-01-07T13:43:18.541Z,8.50
2023-01-07T13:46:03.343Z,8.60
2023-01-07T13:48:31.210Z,8.50
2023-01-07T13:51:10.319Z,8.40
2023-01-07T13:53:39.955Z,8.50
2023-01-07T13:56:19.797Z,8.60
2023-01-07T13:58:58.126Z,8.40
2023-01-07T14:01:26.942Z,8.40
2023-01-07T14:03:55.416Z,8.60
2023-01-07T14:06:23.953Z,8.30
2023-01-07T14:08:56.232Z,8.30
2023-01-07T14:11:32.611Z,8.50
2023-01-07T14:14:38.389Z,8.50
2023-01-07T14:17:23.894Z,8.40
2023-01-07T14:20:20.003Z,8.30
2023-01-07T14:23:12.305Z,8.20
2023-01-07T14:25:57.986Z,8.30
2023-01-07T14:29:09.930Z,8.20
2023-01-07T14:31:37.661Z,8.40
2023-01-07T14:34:26.789Z,8.30
2023-01-07T14:37:06.513Z,8.20
2023-01-07T14:39:40.933Z,8.30
2023-01-07T14:42:20.338Z,8.20
2023-01-07T14:44:51.859Z,8.20
2023-01-07T14:47:41.288Z,8.00
2023-01-07T14:51:32.611Z,8.10
2023-01-07T14:55:37.348Z,8.20
2023-01-07T14:58:25.991Z,8.00
2023-01-07T15:01:07.327Z,8.10
2023-01-07T15:03:50.462Z,8.00
2023-01-07T15:06:28.887Z,8.10
2023-01-07T15:09:17.731Z,7.90
2023-01-07T15:12:05.518Z,7.90
2023-01-07T15:15:02.696Z,7.80
2023-01-07T15:17:31.004Z,8.00
2023-01-07T15:20:00.008Z,7.80
2023-01-07T15:22:37.284Z,7.80
2023-01-07T15:25:08.832Z,7.80
2023-01-07T15:27:45.100Z,7.90
2023-01-07T15:30:24.475Z,7.80
2023-01-07T15:32:57.724Z,7.70
2023-01-07T15:35:34.496Z,7.60
2023-01-07T15:38:26.131Z,7.60
2023-01-07T15:40:55.325Z,7.60
2023-01-07T15:43:27.111Z,7.60
2023-01-07T15:46:06.415Z,7.70
2023-01-07T15:48:34.143Z,7.60
2023-01-07T15:51:01.758Z,7.60
2023-01-07T15:53:30.353Z,7.70
2023-01-07T15:56:08.133Z,7.70
2023-01-07T15:58:47.528Z,7.70
2023-01-07T16:01:21.768Z,7.70
2023-01-07T16:03:51.544Z,7.60
2023-01-07T16:06:31.032Z,7.70
2023-01-07T16:08:59.712Z,7.80
2023-01-07T16:11:30.447Z,7.80
2023-01-07T16:14:04.261Z,7.60
2023-01-07T16:16:32.872Z,7.70
2023-01-07T16:19:02.479Z,7.60
2023-01-07T16:21:39.236Z,7.70
2023-01-07T16:24:07.351Z,7.60
2023-01-07T16:26:49.390Z,7.60
2023-01-07T16:29:24.140Z,7.90
2023-01-07T16:31:52.203Z,7.90
2023-01-07T16:34:25.885Z,7.70
2023-01-07T16:37:02.666Z,7.80
2023-01-07T16:39:42.320Z,7.80
2023-01-07T16:42:25.290Z,7.80
2023-01-07T16:44:55.546Z,7.90
2023-01-07T16:47:24.051Z,7.80
2023-01-07T16:49:53.613Z,7.90
2023-01-07T16:52:26.530Z,7.90
2023-01-07T16:54:54.205Z,7.90
2023-01-07T16:57:42.223Z,7.80
2023-01-07T17:00:18.696Z,7.80
2023-01-07T17:02:57.038Z,7.80
2023-01-07T17:05:27.199Z,7.80
2023-01-07T17:08:01.178Z,7.70
2023-01-07T17:10:35.058Z,7.90
2023-01-07T17:13:15.704Z,7.80
2023-01-07T17:15:43.931Z,7.90
2023-01-07T17:18:11.365Z,7.90
2023-01-07T17:21:00.523Z,7.90
2023-01-07T17:23:28.019Z,7.70
2023-01-07T17:26:04.738Z,7.80
2023-01-07T17:28:36.179Z,7.90
2023-01-07T17:31:05.805Z,7.80
2023-01-07T17:33:33.358Z,7.80
2023-01-07T17:36:00.937Z,7.90
2023-01-07T17:38:28.994Z,7.90
2023-01-07T17:40:56.504Z,8.00
2023-01-07T17:43:35.178Z,7.90
2023-01-07T17:46:05.116Z,8.00
2023-01-07T17:48:33.464Z,8.00
2023-01-07T17:51:01.496Z,7.90
2023-01-07T17:53:31.557Z,7.90
2023-01-07T17:56:01.659Z,7.90
2023-01-07T17:58:31.888Z,7.90
2023-01-07T18:01:01.835Z,8.00
2023-01-07T18:03:29.712Z,8.00
2023-01-07T18:05:57.511Z,8.00
2023-01-07T18:08:25.443Z,8.00
2023-01-07T18:11:13.131Z,8.10
2023-01-07T18:13:41.547Z,8.10
2023-01-07T18:16:16.391Z,8.00
2023-01-07T18:18:44.056Z,8.10
2023-01-07T18:21:12.371Z,8.10
2023-01-07T18:23:39.903Z,8.20
2023-01-07T18:26:07.877Z,8.20
2023-01-07T18:28:35.472Z,8.10
2023-01-07T18:31:02.976Z,8.20
2023-01-07T18:33:30.604Z,8.10
2023-01-07T18:35:58.205Z,8.20
2023-01-07T18:38:25.938Z,8.10
2023-01-07T18:40:55.176Z,8.10
2023-01-07T18:43:22.894Z,8.10
2023-01-07T18:45:50.620Z,8.10
2023-01-07T18:48:19.610Z,8.10
2023-01-07T18:50:49.858Z,8.10
2023-01-07T18:53:19.111Z,8.10
2023-01-07T18:55:46.773Z,8.20
2023-01-07T18:58:15.331Z,8.10
2023-01-07T19:00:43.386Z,8.00
2023-01-07T19:03:11.238Z,8.00
2023-01-07T19:05:41.076Z,7.90
2023-01-07T19:08:08.698Z,7.90
2023-01-07T19:10:41.399Z,7.90
2023-01-07T19:13:09.102Z,8.00
2023-01-07T19:15:38.055Z,8.10
2023-01-07T19:18:05.743Z,8.00
2023-01-07T19:20:33.677Z,8.00
2023-01-07T19:23:01.274Z,8.10
2023-01-07T19:25:30.442Z,8.00
2023-01-07T19:27:58.713Z,8.00
2023-01-07T19:30:26.382Z,8.30
2023-01-07T19:32:54.571Z,8.10
2023-01-07T19:35:22.022Z,8.00
2023-01-07T19:37:50.223Z,8.10
2023-01-07T19:40:17.952Z,8.00
2023-01-07T19:42:45.743Z,8.10
2023-01-07T19:45:13.217Z,8.00
2023-01-07T19:47:41.286Z,8.10
2023-01-07T19:50:09.243Z,8.10
2023-01-07T19:52:36.767Z,7.90
2023-01-07T19:55:04.572Z,8.00
2023-01-07T19:57:32.091Z,7.90
2023-01-07T19:59:59.601Z,7.90
2023-01-07T20:02:27.411Z,7.90
2023-01-07T20:04:55.009Z,7.90
2023-01-07T20:07:22.463Z,7.90
2023-01-07T20:09:49.916Z,7.90
2023-01-07T20:12:17.390Z,7.80
2023-01-07T20:14:45.108Z,7.90
2023-01-07T20:17:12.576Z,7.90
2023-01-07T20:19:40.121Z,8.00
2023-01-07T20:22:09.119Z,7.90
2023-01-07T20:24:36.784Z,7.90
2023-01-07T20:27:04.854Z,7.90
2023-01-07T20:29:32.406Z,7.90
2023-01-07T20:32:00.004Z,7.90
2023-01-07T20:34:27.526Z,8.00
2023-01-07T20:36:55.080Z,7.80
2023-01-07T20:39:22.741Z,7.90
2023-01-07T20:41:50.243Z,7.80
2023-01-07T20:44:17.769Z,7.70
2023-01-07T20:46:45.500Z,7.70
2023-01-07T20:49:13.407Z,7.70
2023-01-07T20:51:40.945Z,7.70
2023-01-07T20:54:08.554Z,7.70
2023-01-07T20:56:36.316Z,7.70
2023-01-07T20:59:04.097Z,7.70
2023-01-07T21:01:31.954Z,7.70
2023-01-07T21:04:01.510Z,7.70
2023-01-07T21:06:29.084Z,7.70
2023-01-07T21:08:56.676Z,7.70
2023-01-07T21:11:24.750Z,7.80
2023-01-07T21:13:56.055Z,7.80
2023-01-07T21:16:25.123Z,7.80
2023-01-07T21:18:52.654Z,7.80
2023-01-07T21:21:24.059Z,7.70
2023-01-07T21:23:53.543Z,7.70
2023-01-07T21:26:21.756Z,7.80
2023-01-07T21:28:51.862Z,7.70
2023-01-07T21:31:19.647Z,7.70
2023-01-07T21:33:47.194Z,7.70
2023-01-07T21:36:17.308Z,7.70
2023-01-07T21:38:46.302Z,7.80
2023-01-07T21:41:16.408Z,7.80
2023-01-07T21:43:44.746Z,7.70
2023-01-07T21:46:13.052Z,7.70
2023-01-07T21:48:42.916Z,7.70
2023-01-07T21:51:20.684Z,7.70
2023-01-07T21:53:48.309Z,7.70
2023-01-07T21:56:17.383Z,7.70
2023-01-07T21:58:49.194Z,7.70
2023-01-07T22:01:17.965Z,7.70
2023-01-07T22:03:47.990Z,7.70
2023-01-07T22:06:24.672Z,7.70
2023-01-07T22:09:00.020Z,7.80
2023-01-07T22:11:28.123Z,7.80
2023-01-07T22:13:58.195Z,7.80
2023-01-07T22:16:29.147Z,7.80
2023-01-07T22:18:57.726Z,7.90
2023-01-07T22:21:25.622Z,7.80
2023-01-07T22:23:53.287Z,7.70
2023-01-07T22:26:21.553Z,7.60
2023-01-07T22:28:54.751Z,7.60
2023-01-07T22:31:25.766Z,7.60
2023-01-07T22:33:54.223Z,7.60
2023-01-07T22:36:24.096Z,7.50
2023-01-07T22:38:52.880Z,7.60
2023-01-07T22:41:20.394Z,7.50
2023-01-07T22:43:48.034Z,7.50
2023-01-07T22:46:24.849Z,7.50
2023-01-07T22:48:52.989Z,7.60
2023-01-07T22:51:25.208Z,7.60
2023-01-07T22:53:55.117Z,7.60
2023-01-07T22:56:23.571Z,7.60
2023-01-07T22:58:51.286Z,7.50
2023-01-07T23:01:18.795Z,7.50
2023-01-07T23:03:46.557Z,7.50
2023-01-07T23:06:16.130Z,7.50
2023-01-07T23:08:44.385Z,7.40
2023-01-07T23:11:32.272Z,7.40
2023-01-07T23:13:59.977Z,7.40
2023-01-07T23:16:27.621Z,7.40
2023-01-07T23:18:55.363Z,7.40
2023-01-07T23:21:22.801Z,7.40
2023-01-07T23:23:50.254Z,7.40
2023-01-07T23:26:17.737Z,7.40
2023-01-07T23:28:45.254Z,7.40
2023-01-07T23:31:12.824Z,7.40
2023-01-07T23:33:40.448Z,7.40
2023-01-07T23:36:09.948Z,7.40
2023-01-07T23:38:37.708Z,7.40
2023-01-07T23:41:07.640Z,7.50
2023-01-07T23:43:35.605Z,7.40
2023-01-07T23:46:05.765Z,7.60
2023-01-07T23:48:35.093Z,7.50
2023-01-07T23:51:17.382Z,7.60
2023-01-07T23:53:45.699Z,7.50
2023-01-07T23:56:13.869Z,7.60
2023-01-07T23:58:41.339Z,7.70
